Time;durP1;ratioP1;P1;durP2;ratioP2;P2;SDS_P1;SDS_P2;PMS_P1;PMS_P2;Temp;Humidity;BMP_temperature;BMP_pressure;BME280_temperature;BME280_humidity;BME280_pressure;Samples;Min_cycle;Max_cycle;Signal;HPM_P1;HPM_P2
2023/05/08 00:01:56;;;;;;;11.13;7.72;;;10.20;99.90;;;;;;12482202;28;20064;-38
2023/05/08 00:08:01;;;;;;;10.15;7.40;;;10.10;99.90;;;;;;12462459;28;20057;-38
2023/05/08 00:14:02;;;;;;;;;;;10.10;99.90;;;;;;12483146;28;20493;-38
2023/05/08 00:20:06;;;;;;;10.90;6.90;;;9.80;99.90;;;;;;12493764;28;20070;-38
2023/05/08 00:26:08;;;;;;;7.50;6.28;;;9.50;99.90;;;;;;12457454;28;20052;-38
2023/05/08 00:32:10;;;;;;;9.15;6.45;;;9.90;99.90;;;;;;12505941;28;20099;-38
2023/05/08 00:38:12;;;;;;;8.93;6.95;;;9.80;99.90;;;;;;12486884;28;20046;-37
2023/05/08 00:44:14;;;;;;;9.85;6.95;;;9.60;99.90;;;;;;12488714;28;20385;-39
2023/05/08 00:50:16;;;;;;;8.88;6.75;;;9.30;99.90;;;;;;12472128;28;20118;-37
2023/05/08 00:56:21;;;;;;;8.40;5.88;;;9.60;99.90;;;;;;12495405;28;20037;-40
2023/05/08 01:02:24;;;;;;;;;;;9.80;99.90;;;;;;12488382;28;20053;-38
2023/05/08 01:08:26;;;;;;;9.10;5.75;;;10.00;99.90;;;;;;12492355;28;19968;-38
2023/05/08 01:14:57;;;;;;;6.78;5.32;;;10.00;99.90;;;;;;12486299;28;20042;-39
2023/05/08 01:21:05;;;;;;;9.68;5.65;;;10.10;99.90;;;;;;12487485;28;20034;-39
2023/05/08 01:27:52;;;;;;;7.75;5.35;;;9.60;99.90;;;;;;12490159;28;20517;-38
2023/05/08 01:34:07;;;;;;;11.25;6.00;;;9.40;99.90;;;;;;12478702;28;20062;-39
2023/05/08 01:40:34;;;;;;;6.82;4.93;;;9.70;99.90;;;;;;12471905;28;20196;-38
2023/05/08 01:46:35;;;;;;;6.85;5.65;;;9.90;99.90;;;;;;12477717;28;20037;-38
2023/05/08 01:52:51;;;;;;;8.77;6.43;;;10.10;99.90;;;;;;12489573;28;20053;-38
2023/05/08 01:58:56;;;;;;;9.82;6.30;;;9.60;99.90;;;;;;12485095;28;20143;-39
2023/05/08 02:05:03;;;;;;;7.30;5.85;;;9.50;99.90;;;;;;12481252;28;20045;-38
2023/05/08 02:11:06;;;;;;;7.10;5.45;;;9.30;99.90;;;;;;12489851;28;20053;-39
2023/05/08 02:17:10;;;;;;;7.35;5.50;;;9.20;99.90;;;;;;12474595;28;20045;-39
2023/05/08 02:23:14;;;;;;;8.80;6.63;;;9.30;99.90;;;;;;12485102;28;20114;-39
2023/05/08 02:29:16;;;;;;;7.07;5.97;;;9.10;99.90;;;;;;12480568;28;20304;-38
2023/05/08 02:35:19;;;;;;;7.95;6.30;;;9.20;99.90;;;;;;12486204;28;20041;-39
2023/05/08 02:41:29;;;;;;;9.32;6.70;;;9.10;99.90;;;;;;12463848;28;20119;-39
2023/05/08 02:47:51;;;;;;;8.30;6.05;;;9.10;99.90;;;;;;12494149;28;20049;-39
2023/05/08 02:54:09;;;;;;;7.93;6.47;;;9.30;99.90;;;;;;12482428;28;20052;-39
2023/05/08 03:00:17;;;;;;;8.95;7.00;;;9.30;99.90;;;;;;12485191;28;20049;-39
2023/05/08 03:06:23;;;;;;;9.25;6.82;;;9.30;99.90;;;;;;12488764;28;20053;-38
2023/05/08 03:12:27;;;;;;;8.85;6.95;;;9.20;99.90;;;;;;12487524;28;20037;-38
2023/05/08 03:18:38;;;;;;;9.65;6.57;;;9.30;99.90;;;;;;12466175;28;20069;-40
2023/05/08 03:24:43;;;;;;;8.52;6.82;;;9.20;99.90;;;;;;12484851;28;20052;-38
2023/05/08 03:30:45;;;;;;;9.15;7.35;;;9.20;99.90;;;;;;12485346;28;20140;-40
2023/05/08 03:36:47;;;;;;;8.82;7.20;;;9.30;99.90;;;;;;12479319;28;20517;-39
2023/05/08 03:42:50;;;;;;;10.05;7.15;;;9.50;99.90;;;;;;12481805;28;20080;-39
2023/05/08 03:48:53;;;;;;;9.13;6.78;;;9.30;99.90;;;;;;12477616;28;20041;-39
2023/05/08 03:54:55;;;;;;;9.48;6.68;;;9.70;99.90;;;;;;12491752;28;20573;-38
2023/05/08 04:01:06;;;;;;;9.65;7.50;;;9.90;99.90;;;;;;12488249;28;20087;-38
2023/05/08 04:07:37;;;;;;;8.15;6.63;;;10.50;99.90;;;;;;12482648;28;20054;-39
2023/05/08 04:13:47;;;;;;;7.18;6.32;;;11.40;99.90;;;;;;12445664;28;20076;-38
2023/05/08 04:19:59;;;;;;;10.15;6.13;;;12.50;99.90;;;;;;12479997;28;20052;-38
2023/05/08 04:26:02;;;;;;;10.35;6.47;;;12.00;99.90;;;;;;12494544;28;20056;-38
2023/05/08 04:32:07;;;;;;;9.10;6.93;;;10.50;99.90;;;;;;12493496;28;20387;-38
2023/05/08 04:38:09;;;;;;;8.15;6.43;;;10.40;99.90;;;;;;12499741;28;20105;-38
2023/05/08 04:44:11;;;;;;;9.43;6.65;;;10.60;99.90;;;;;;12492064;28;20139;-38
2023/05/08 04:50:13;;;;;;;8.20;6.82;;;10.70;99.90;;;;;;12479132;28;20752;-39
2023/05/08 04:56:15;;;;;;;8.15;6.47;;;11.00;99.90;;;;;;12490945;28;20183;-38
2023/05/08 05:02:19;;;;;;;8.53;5.67;;;12.60;99.90;;;;;;12481855;28;20045;-38
2023/05/08 05:08:21;;;;;;;6.03;4.53;;;15.20;99.90;;;;;;12496125;28;20442;-38
2023/05/08 05:14:23;;;;;;;7.38;5.32;;;15.80;99.90;;;;;;12486174;28;20034;-38
2023/05/08 05:20:25;;;;;;;5.45;4.65;;;15.50;99.90;;;;;;12507991;28;20399;-39
2023/05/08 05:26:26;;;;;;;6.82;4.82;;;15.50;99.90;;;;;;12505605;28;20434;-39
2023/05/08 05:32:28;;;;;;;5.13;4.60;;;15.60;99.90;;;;;;12494834;28;20432;-38
2023/05/08 05:38:30;;;;;;;7.85;5.70;;;16.70;99.90;;;;;;12493051;28;20045;-38
2023/05/08 05:44:32;;;;;;;7.15;5.25;;;16.60;99.90;;;;;;12488232;28;20509;-38
2023/05/08 05:50:34;;;;;;;5.85;4.90;;;16.50;99.90;;;;;;12492882;28;20041;-38
2023/05/08 05:56:36;;;;;;;7.40;5.55;;;17.10;99.90;;;;;;12494921;28;20069;-38
2023/05/08 06:02:38;;;;;;;7.60;6.00;;;16.30;99.90;;;;;;12498279;28;20422;-38
2023/05/08 06:08:40;;;;;;;8.18;6.30;;;15.20;99.90;;;;;;12481930;28;20081;-38
2023/05/08 06:14:41;;;;;;;9.77;6.60;;;14.60;99.90;;;;;;12480662;28;20041;-40
2023/05/08 06:20:43;;;;;;;9.93;7.00;;;13.70;99.90;;;;;;12503332;28;20057;-38
2023/05/08 06:26:45;;;;;;;10.05;7.63;;;12.60;99.90;;;;;;12500113;28;20410;-39
2023/05/08 06:32:47;;;;;;;9.02;6.45;;;13.20;99.90;;;;;;12485972;28;20053;-38
2023/05/08 06:38:49;;;;;;;8.73;6.30;;;14.70;99.90;;;;;;12509418;28;20060;-38
2023/05/08 06:44:52;;;;;;;8.00;6.80;;;14.40;99.90;;;;;;12512621;28;20041;-39
2023/05/08 06:50:55;;;;;;;7.80;6.53;;;13.20;99.90;;;;;;12487039;28;20460;-39
2023/05/08 06:56:56;;;;;;;7.95;6.35;;;13.60;99.90;;;;;;12492286;28;20049;-39
2023/05/08 07:02:58;;;;;;;10.65;7.13;;;13.80;99.90;;;;;;12510282;28;20042;-39
2023/05/08 07:09:00;;;;;;;12.38;6.85;;;13.80;99.90;;;;;;12459758;28;20050;-39
2023/05/08 07:15:02;;;;;;;9.88;6.75;;;13.70;99.90;;;;;;12416573;28;20192;-40
2023/05/08 07:21:25;;;;;;;8.23;7.10;;;14.20;99.90;;;;;;12423519;28;20042;-38
2023/05/08 07:27:27;;;;;;;9.55;7.28;;;14.10;99.90;;;;;;12407361;28;20042;-38
2023/05/08 07:33:28;;;;;;;9.02;6.60;;;14.60;99.90;;;;;;12420017;28;20050;-39
2023/05/08 07:39:30;;;;;;;8.57;6.68;;;14.50;99.90;;;;;;12417659;28;20050;-40
2023/05/08 07:45:33;;;;;;;10.52;7.55;;;14.60;99.90;;;;;;12415948;28;20423;-40
2023/05/08 07:51:39;;;;;;;9.05;7.30;;;14.50;99.90;;;;;;12413920;28;20042;-39
2023/05/08 07:57:41;;;;;;;8.27;7.03;;;14.50;99.90;;;;;;12382343;28;20160;-38
2023/05/08 08:03:46;;;;;;;10.75;7.63;;;14.50;99.90;;;;;;12398264;28;20599;-39
2023/05/08 08:09:48;;;;;;;10.45;7.20;;;14.60;99.90;;;;;;12449312;28;20084;-39
2023/05/08 08:15:50;;;;;;;9.63;6.90;;;14.70;99.90;;;;;;12462579;28;20045;-38
2023/05/08 08:21:52;;;;;;;9.93;7.60;;;15.00;99.90;;;;;;12481104;28;20425;-41
2023/05/08 08:27:54;;;;;;;10.18;7.43;;;15.50;99.90;;;;;;12484626;28;20087;-39
2023/05/08 08:33:56;;;;;;;9.02;7.15;;;15.40;99.90;;;;;;12495733;28;20045;-38
2023/05/08 08:39:59;;;;;;;9.32;7.05;;;15.90;99.90;;;;;;12493512;28;20075;-39
2023/05/08 08:46:10;;;;;;;9.82;7.60;;;15.70;99.90;;;;;;12509880;28;20080;-39
2023/05/08 08:52:37;;;;;;;7.50;6.20;;;15.70;99.90;;;;;;12493801;28;20497;-39
2023/05/08 08:59:07;;;;;;;8.85;6.40;;;16.10;99.90;;;;;;12486241;28;20110;-39
2023/05/08 09:05:10;;;;;;;8.02;7.22;;;16.70;99.90;;;;;;12490266;28;20049;-39
2023/05/08 09:11:12;;;;;;;9.30;6.53;;;16.60;99.90;;;;;;12497345;28;20101;-40
2023/05/08 09:17:14;;;;;;;8.30;7.18;;;17.60;99.90;;;;;;12441286;28;20498;-39
2023/05/08 09:23:17;;;;;;;9.05;6.13;;;17.90;99.90;;;;;;12468381;28;20083;-40
2023/05/08 09:29:23;;;;;;;7.10;6.40;;;17.90;99.90;;;;;;12464154;28;20045;-40
2023/05/08 09:35:35;;;;;;;6.13;5.53;;;17.90;99.90;;;;;;12450918;28;20103;-43
2023/05/08 09:41:37;;;;;;;7.32;5.90;;;18.60;99.90;;;;;;12455184;28;20049;-41
2023/05/08 09:47:47;;;;;;;7.22;5.60;;;18.20;99.90;;;;;;12447335;28;20494;-41
2023/05/08 09:53:53;;;;;;;8.15;6.07;;;18.60;99.90;;;;;;12451973;28;20064;-41
2023/05/08 10:00:07;;;;;;;7.65;5.95;;;18.60;99.90;;;;;;12464496;28;20049;-41
2023/05/08 10:06:13;;;;;;;8.25;5.82;;;19.50;99.90;;;;;;12459128;28;20175;-41
2023/05/08 10:12:15;;;;;;;7.57;6.65;;;19.10;99.90;;;;;;12468253;28;20531;-40
2023/05/08 10:18:19;;;;;;;7.18;6.00;;;19.50;99.90;;;;;;12488891;28;20064;-40
2023/05/08 10:24:25;;;;;;;;;;;19.30;99.90;;;;;;12505200;28;20095;-39
2023/05/08 10:30:30;;;;;;;7.85;6.45;;;19.10;99.90;;;;;;12485437;28;20446;-40
2023/05/08 10:36:34;;;;;;;7.32;6.10;;;19.00;99.90;;;;;;12480895;28;20053;-40
2023/05/08 10:42:36;;;;;;;;;;;18.80;99.90;;;;;;12492684;28;20103;-40
2023/05/08 10:49:10;;;;;;;7.75;6.18;;;18.80;99.90;;;;;;12488551;28;19936;-40
2023/05/08 10:55:28;;;;;;;7.90;5.90;;;19.40;99.90;;;;;;12471089;28;20046;-40
2023/05/08 11:01:30;;;;;;;7.13;6.30;;;19.90;99.90;;;;;;12493322;28;20054;-41
2023/05/08 11:08:15;;;;;;;7.38;5.80;;;20.30;99.90;;;;;;12492849;28;20071;-40
2023/05/08 11:14:18;;;;;;;5.55;4.88;;;20.10;99.90;;;;;;12309193;28;20065;-40
2023/05/08 11:20:23;;;;;;;7.70;6.27;;;20.30;99.90;;;;;;12482513;28;20200;-41
2023/05/08 11:26:39;;;;;;;7.10;4.85;;;21.10;99.90;;;;;;12486788;28;20272;-40
2023/05/08 11:32:59;;;;;;;5.60;4.15;;;21.20;99.90;;;;;;12500818;28;20061;-40
2023/05/08 11:39:12;;;;;;;7.82;3.72;;;21.50;99.90;;;;;;12478555;28;20049;-40
2023/05/08 11:45:15;;;;;;;5.90;4.47;;;22.10;99.90;;;;;;12484105;28;20570;-41
2023/05/08 11:51:20;;;;;;;5.28;3.78;;;22.10;99.90;;;;;;12480036;28;20052;-41
2023/05/08 11:57:22;;;;;;;8.38;5.68;;;22.40;99.90;;;;;;12450710;28;20076;-41
2023/05/08 12:03:24;;;;;;;4.93;3.67;;;22.80;99.90;;;;;;12492908;28;20097;-40
2023/05/08 12:09:26;;;;;;;8.83;4.63;;;23.20;99.90;;;;;;12490086;28;20107;-40
2023/05/08 12:15:28;;;;;;;8.02;4.57;;;23.30;99.90;;;;;;12467309;28;20141;-40
2023/05/08 12:21:30;;;;;;;5.38;4.07;;;23.50;99.90;;;;;;12502869;28;20087;-40
2023/05/08 12:27:32;;;;;;;5.38;4.78;;;22.80;99.90;;;;;;12519614;28;20060;-40
2023/05/08 12:33:34;;;;;;;5.85;4.70;;;21.40;99.90;;;;;;12492763;28;20122;-40
2023/05/08 12:39:36;;;;;;;6.47;4.35;;;21.20;99.90;;;;;;12503554;28;20378;-40
2023/05/08 12:45:40;;;;;;;6.32;4.90;;;20.90;99.90;;;;;;12480116;28;20499;-40
2023/05/08 12:51:45;;;;;;;6.53;4.85;;;20.40;99.90;;;;;;12503293;28;20076;-40
2023/05/08 12:57:47;;;;;;;6.22;4.35;;;20.30;99.90;;;;;;12493500;28;20053;-40
2023/05/08 13:03:52;;;;;;;5.73;5.07;;;19.90;99.90;;;;;;12478878;28;20052;-40
2023/05/08 13:10:03;;;;;;;5.70;4.75;;;20.10;99.90;;;;;;12496029;28;20038;-40
2023/05/08 13:16:06;;;;;;;7.30;4.43;;;19.90;99.90;;;;;;12423492;28;20045;-39
2023/05/08 13:22:08;;;;;;;7.47;4.87;;;19.70;99.90;;;;;;12443833;28;20124;-39
2023/05/08 13:28:10;;;;;;;7.10;4.32;;;20.10;99.90;;;;;;12443690;28;20049;-40
2023/05/08 13:34:13;;;;;;;7.60;5.25;;;21.30;99.90;;;;;;12476403;28;20493;-40
2023/05/08 13:40:17;;;;;;;6.82;4.40;;;22.30;99.90;;;;;;12499375;28;20484;-40
2023/05/08 13:46:19;;;;;;;8.13;4.22;;;22.20;99.90;;;;;;12490129;28;20549;-40
2023/05/08 13:52:28;;;;;;;5.60;4.57;;;22.50;99.90;;;;;;12486933;28;20501;-40
2023/05/08 13:58:30;;;;;;;5.40;3.85;;;22.10;99.90;;;;;;12481346;28;20840;-39
2023/05/08 14:04:32;;;;;;;7.53;5.00;;;21.90;99.90;;;;;;12493656;28;20051;-40
2023/05/08 14:10:34;;;;;;;5.30;4.38;;;21.90;99.90;;;;;;12491778;28;20045;-40
2023/05/08 14:16:35;;;;;;;6.00;4.10;;;22.20;99.90;;;;;;12443885;28;20092;-40
2023/05/08 14:22:38;;;;;;;4.63;4.20;;;22.30;99.90;;;;;;12486867;28;20045;-40
2023/05/08 14:28:40;;;;;;;9.90;3.95;;;22.30;99.90;;;;;;12498959;28;20068;-40
2023/05/08 14:34:42;;;;;;;5.90;4.20;;;21.80;99.90;;;;;;12486109;28;20567;-39
2023/05/08 14:40:43;;;;;;;4.93;3.92;;;20.90;99.90;;;;;;12489977;28;20089;-40
2023/05/08 14:46:45;;;;;;;6.22;3.90;;;20.50;99.90;;;;;;12481549;28;20485;-40
2023/05/08 14:52:47;;;;;;;7.57;3.75;;;21.00;99.90;;;;;;12482612;28;20128;-40
2023/05/08 14:58:54;;;;;;;6.32;3.72;;;21.40;99.90;;;;;;12484757;28;20650;-40
2023/05/08 15:04:56;;;;;;;7.13;3.67;;;21.30;99.90;;;;;;12479095;28;20053;-40
2023/05/08 15:10:58;;;;;;;6.18;3.88;;;20.80;99.90;;;;;;12474548;28;20459;-40
2023/05/08 15:17:00;;;;;;;5.20;3.90;;;20.60;99.90;;;;;;12485589;28;20041;-40
2023/05/08 15:23:02;;;;;;;6.60;3.60;;;20.40;99.90;;;;;;12470101;28;20076;-40
2023/05/08 15:29:04;;;;;;;9.52;3.83;;;20.40;99.90;;;;;;12447680;28;20196;-40
2023/05/08 15:35:06;;;;;;;4.50;3.67;;;20.30;99.90;;;;;;12488239;28;20087;-40
2023/05/08 15:41:12;;;;;;;6.22;3.70;;;20.30;99.90;;;;;;12474733;28;20068;-40
2023/05/08 15:47:18;;;;;;;5.45;3.50;;;20.20;99.90;;;;;;12483424;28;20374;-40
2023/05/08 15:53:20;;;;;;;4.85;3.78;;;20.20;99.90;;;;;;12481574;28;20050;-41
2023/05/08 15:59:21;;;;;;;5.10;3.80;;;20.20;99.90;;;;;;12466104;28;20119;-40
2023/05/08 16:05:23;;;;;;;5.22;4.03;;;20.20;99.90;;;;;;12452735;28;20108;-40
2023/05/08 16:11:30;;;;;;;5.05;3.88;;;20.10;99.90;;;;;;12446387;28;20046;-40
2023/05/08 16:17:32;;;;;;;6.32;3.90;;;20.20;99.90;;;;;;12412830;28;20509;-40
2023/05/08 16:23:34;;;;;;;7.10;4.07;;;20.20;99.90;;;;;;12435767;28;20072;-40
2023/05/08 16:29:36;;;;;;;6.90;3.63;;;20.20;99.90;;;;;;12449344;28;20087;-39
2023/05/08 16:35:39;;;;;;;5.90;3.58;;;20.20;99.90;;;;;;12439548;28;20042;-40
2023/05/08 16:41:41;;;;;;;5.43;3.40;;;20.20;99.90;;;;;;12428733;28;20045;-40
2023/05/08 16:47:42;;;;;;;5.53;3.58;;;20.20;99.90;;;;;;12429344;28;20038;-40
2023/05/08 16:53:44;;;;;;;5.95;3.30;;;20.10;99.90;;;;;;12426676;28;20536;-41
2023/05/08 16:59:46;;;;;;;7.45;3.60;;;20.00;99.90;;;;;;12457973;28;20089;-40
2023/05/08 17:05:48;;;;;;;6.65;5.00;;;19.80;99.90;;;;;;12471416;28;20054;-40
2023/05/08 17:11:50;;;;;;;7.60;5.75;;;19.60;99.90;;;;;;12444671;28;20433;-41
2023/05/08 17:17:52;;;;;;;10.27;5.45;;;19.30;99.90;;;;;;12434466;28;20054;-40
2023/05/08 17:23:54;;;;;;;11.40;6.43;;;18.90;99.90;;;;;;12442833;28;20072;-40
2023/05/08 17:29:56;;;;;;;7.63;5.78;;;18.70;99.90;;;;;;12444896;28;20067;-40
2023/05/08 17:35:59;;;;;;;7.30;4.70;;;18.50;99.90;;;;;;12433658;28;20430;-41
2023/05/08 17:42:01;;;;;;;8.45;5.90;;;18.50;99.90;;;;;;12438711;28;20119;-40
2023/05/08 17:48:03;;;;;;;9.02;6.35;;;18.50;99.90;;;;;;12449107;28;20038;-40
2023/05/08 17:54:06;;;;;;;9.15;5.60;;;18.50;99.90;;;;;;12438572;28;20073;-39
2023/05/08 18:00:09;;;;;;;6.55;5.60;;;18.40;99.90;;;;;;12436090;28;20052;-40
2023/05/08 18:06:20;;;;;;;6.88;5.85;;;18.40;99.90;;;;;;12433361;28;20406;-40
2023/05/08 18:12:22;;;;;;;9.60;6.00;;;18.10;99.90;;;;;;12430934;28;20075;-40
2023/05/08 18:18:24;;;;;;;10.00;5.63;;;18.10;99.90;;;;;;12434450;28;20054;-39
2023/05/08 18:24:26;;;;;;;9.10;5.70;;;17.90;99.90;;;;;;12436997;28;20133;-40
2023/05/08 18:30:28;;;;;;;7.38;5.97;;;17.80;99.90;;;;;;12436363;28;20088;-39
2023/05/08 18:36:30;;;;;;;7.80;5.75;;;17.70;99.90;;;;;;12446889;28;20474;-40
2023/05/08 18:42:32;;;;;;;7.45;5.55;;;17.70;99.90;;;;;;12433288;28;20137;-40
2023/05/08 18:48:35;;;;;;;8.23;5.90;;;17.60;99.90;;;;;;12448135;28;20606;-39
2023/05/08 18:54:36;;;;;;;6.82;5.47;;;17.50;99.90;;;;;;12426810;28;20042;-39
2023/05/08 19:00:38;;;;;;;7.35;6.22;;;17.30;99.90;;;;;;12425644;28;20050;-40
2023/05/08 19:06:40;;;;;;;8.68;6.28;;;17.10;99.90;;;;;;12442668;28;20560;-39
2023/05/08 19:12:43;;;;;;;10.30;6.80;;;16.90;99.90;;;;;;12457280;28;20084;-40
2023/05/08 19:18:45;;;;;;;8.45;6.70;;;16.60;99.90;;;;;;12424719;28;20058;-39
2023/05/08 19:24:46;;;;;;;8.93;7.15;;;16.60;99.90;;;;;;12455320;28;20082;-40
2023/05/08 19:30:50;;;;;;;8.90;7.45;;;16.40;99.90;;;;;;12449570;28;20053;-39
2023/05/08 19:36:52;;;;;;;;;;;16.30;99.90;;;;;;12443100;28;20045;-39
2023/05/08 19:42:54;;;;;;;10.65;6.70;;;16.30;99.90;;;;;;12449235;28;19925;-40
2023/05/08 19:48:56;;;;;;;7.97;6.18;;;16.20;99.90;;;;;;12455174;28;20042;-40
2023/05/08 19:54:58;;;;;;;9.20;4.82;;;16.10;99.90;;;;;;12456406;28;20045;-41
2023/05/08 20:01:00;;;;;;;5.65;4.57;;;16.10;99.90;;;;;;12414284;28;20081;-40
2023/05/08 20:07:02;;;;;;;6.32;3.95;;;16.10;99.90;;;;;;12427199;28;20124;-40
2023/05/08 20:13:04;;;;;;;6.00;4.28;;;16.10;99.90;;;;;;12436200;28;20444;-40
2023/05/08 20:19:06;;;;;;;5.30;4.20;;;16.10;99.90;;;;;;12450453;28;20089;-41
2023/05/08 20:25:08;;;;;;;4.40;3.55;;;16.00;99.90;;;;;;12427308;28;20052;-40
2023/05/08 20:31:10;;;;;;;6.38;4.07;;;16.20;99.90;;;;;;12441341;28;20041;-40
2023/05/08 20:37:14;;;;;;;6.63;4.03;;;16.20;99.90;;;;;;12438923;28;20614;-40
2023/05/08 20:43:16;;;;;;;;;;;16.20;99.90;;;;;;12443050;28;20209;-40
2023/05/08 20:49:18;;;;;;;5.93;3.58;;;16.20;99.90;;;;;;12456538;28;20405;-40
2023/05/08 20:55:20;;;;;;;6.28;3.33;;;16.10;99.90;;;;;;12433772;28;20505;-40
2023/05/08 21:01:22;;;;;;;4.63;3.65;;;16.00;99.90;;;;;;12464030;28;20568;-40
2023/05/08 21:07:24;;;;;;;8.55;3.67;;;16.00;99.90;;;;;;12437394;28;20188;-40
2023/05/08 21:13:25;;;;;;;5.55;3.67;;;15.80;99.90;;;;;;12429813;28;20520;-40
2023/05/08 21:19:29;;;;;;;6.38;3.85;;;15.80;99.90;;;;;;12454277;28;20050;-40
2023/05/08 21:25:31;;;;;;;5.65;4.00;;;15.70;99.90;;;;;;12439978;28;20184;-40
2023/05/08 21:31:36;;;;;;;6.50;4.13;;;15.70;99.90;;;;;;12433132;28;20073;-40
2023/05/08 21:37:38;;;;;;;4.43;3.72;;;15.60;99.90;;;;;;12429556;28;20042;-40
2023/05/08 21:43:40;;;;;;;4.72;3.80;;;15.60;99.90;;;;;;12436739;28;20112;-40
2023/05/08 21:49:42;;;;;;;5.00;4.00;;;15.60;99.90;;;;;;12462365;28;20099;-40
2023/05/08 21:55:44;;;;;;;5.70;4.20;;;15.60;99.90;;;;;;12420500;28;20054;-39
2023/05/08 22:01:46;;;;;;;6.20;4.15;;;15.50;99.90;;;;;;12437227;28;20089;-40
2023/05/08 22:07:48;;;;;;;5.55;3.85;;;15.40;99.90;;;;;;12470471;28;20049;-40
2023/05/08 22:13:49;;;;;;;5.63;3.80;;;15.40;99.90;;;;;;12492075;28;20050;-39
2023/05/08 22:19:51;;;;;;;7.88;3.72;;;15.40;99.90;;;;;;12491904;28;20133;-39
2023/05/08 22:25:53;;;;;;;6.07;3.70;;;15.40;99.90;;;;;;12482837;28;20041;-39
2023/05/08 22:31:55;;;;;;;5.72;3.10;;;15.30;99.90;;;;;;12505980;28;20079;-39
2023/05/08 22:37:57;;;;;;;5.75;3.40;;;15.30;99.90;;;;;;12498817;28;20474;-40
2023/05/08 22:43:59;;;;;;;5.38;3.25;;;15.30;99.90;;;;;;12484332;28;20122;-39
2023/05/08 22:50:02;;;;;;;5.13;2.90;;;15.20;99.90;;;;;;12487707;28;20155;-39
2023/05/08 22:56:04;;;;;;;4.25;3.08;;;15.20;99.90;;;;;;12483786;28;20633;-40
2023/05/08 23:02:06;;;;;;;3.55;2.70;;;15.20;99.90;;;;;;12486118;28;20175;-39
2023/05/08 23:08:08;;;;;;;5.13;2.47;;;15.20;99.90;;;;;;12485014;28;20081;-40
2023/05/08 23:14:10;;;;;;;6.28;2.58;;;15.20;99.90;;;;;;12481388;28;20536;-40
2023/05/08 23:20:14;;;;;;;4.43;2.50;;;15.10;99.90;;;;;;12484568;28;20050;-39
2023/05/08 23:26:17;;;;;;;5.05;2.42;;;15.10;99.90;;;;;;12494594;28;20374;-40
2023/05/08 23:32:19;;;;;;;3.83;2.10;;;15.20;99.90;;;;;;12498013;28;20053;-40
2023/05/08 23:38:21;;;;;;;3.95;2.13;;;15.00;99.90;;;;;;12495057;28;20042;-39
2023/05/08 23:44:23;;;;;;;3.28;2.20;;;14.90;99.90;;;;;;12470386;28;20049;-40
2023/05/08 23:50:25;;;;;;;7.13;2.67;;;14.80;99.90;;;;;;12484735;28;20072;-39
2023/05/08 23:56:28;;;;;;;4.22;2.33;;;14.90;99.90;;;;;;12477852;28;20075;-40
